createdAt,value
2023-12-18T00:00:00.836Z,0.21
2023-12-18T00:02:30.773Z,0.23
2023-12-18T00:04:59.286Z,0.24
2023-12-18T00:07:28.512Z,0.22
2023-12-18T00:09:56.841Z,0.20
2023-12-18T00:12:25.388Z,0.23
2023-12-18T00:14:53.855Z,0.24
2023-12-18T00:17:22.263Z,0.23
2023-12-18T00:19:52.554Z,0.20
2023-12-18T00:22:20.950Z,0.16
2023-12-18T00:24:49.392Z,0.12
2023-12-18T00:27:18.036Z,0.06
2023-12-18T00:29:46.358Z,0.03
2023-12-18T00:32:14.900Z,-0.02
2023-12-18T00:34:43.519Z,-0.05
2023-12-18T00:37:12.503Z,-0.06
2023-12-18T00:39:40.956Z,-0.09
2023-12-18T00:42:09.648Z,-0.12
2023-12-18T00:44:38.090Z,-0.16
2023-12-18T00:47:06.746Z,-0.19
2023-12-18T00:49:35.225Z,-0.22
2023-12-18T00:52:03.891Z,-0.24
2023-12-18T00:54:32.338Z,-0.25
2023-12-18T00:57:00.831Z,-0.24
2023-12-18T00:59:29.312Z,-0.19
2023-12-18T01:01:57.689Z,-0.12
2023-12-18T01:04:26.153Z,-0.08
2023-12-18T01:06:54.493Z,-0.09
2023-12-18T01:09:23.553Z,-0.08
2023-12-18T01:11:52.422Z,-0.04
2023-12-18T01:14:20.791Z,-0.03
2023-12-18T01:16:49.529Z,-0.04
2023-12-18T01:19:18.061Z,-0.03
2023-12-18T01:21:46.498Z,-0.03
2023-12-18T01:24:14.921Z,-0.01
2023-12-18T01:26:43.371Z,0.03
2023-12-18T01:29:11.858Z,0.06
2023-12-18T01:31:40.240Z,0.06
2023-12-18T01:34:08.764Z,0.07
2023-12-18T01:36:37.091Z,0.07
2023-12-18T01:39:05.476Z,0.07
2023-12-18T01:41:33.965Z,0.07
2023-12-18T01:44:02.352Z,0.05
2023-12-18T01:46:30.883Z,0.03
2023-12-18T01:48:59.594Z,-0.01
2023-12-18T01:51:29.397Z,-0.03
2023-12-18T01:53:59.812Z,-0.04
2023-12-18T01:56:31.879Z,-0.04
2023-12-18T01:59:02.254Z,-0.03
2023-12-18T02:01:31.238Z,-0.01
2023-12-18T02:04:00.456Z,0.01
2023-12-18T02:06:29.304Z,0.02
2023-12-18T02:08:58.652Z,-0.01
2023-12-18T02:11:27.197Z,-0.04
2023-12-18T02:13:55.742Z,-0.06
2023-12-18T02:16:24.280Z,-0.08
2023-12-18T02:18:52.712Z,-0.10
2023-12-18T02:21:22.579Z,-0.14
2023-12-18T02:23:52.291Z,-0.21
2023-12-18T02:26:22.130Z,-0.25
2023-12-18T02:28:50.664Z,-0.25
2023-12-18T02:31:20.139Z,-0.23
2023-12-18T02:33:51.663Z,-0.22
2023-12-18T02:36:20.581Z,-0.21
2023-12-18T02:38:49.097Z,-0.24
2023-12-18T02:41:17.517Z,-0.29
2023-12-18T02:43:46.096Z,-0.35
2023-12-18T02:46:14.547Z,-0.36
2023-12-18T02:48:43.240Z,-0.40
2023-12-18T02:51:11.941Z,-0.42
2023-12-18T02:53:40.270Z,-0.47
2023-12-18T02:56:08.634Z,-0.49
2023-12-18T02:58:37.178Z,-0.49
2023-12-18T03:01:05.366Z,-0.50
2023-12-18T03:03:33.709Z,-0.50
2023-12-18T03:06:02.263Z,-0.50
2023-12-18T03:08:30.772Z,-0.55
2023-12-18T03:10:59.274Z,-0.60
2023-12-18T03:13:27.757Z,-0.62
2023-12-18T03:15:58.413Z,-0.64
2023-12-18T03:18:26.956Z,-0.68
2023-12-18T03:20:55.568Z,-0.70
2023-12-18T03:23:23.930Z,-0.70
2023-12-18T03:25:52.445Z,-0.72
2023-12-18T03:28:20.801Z,-0.78
2023-12-18T03:30:49.223Z,-0.81
2023-12-18T03:33:17.974Z,-0.81
2023-12-18T03:35:46.796Z,-0.80
2023-12-18T03:38:15.239Z,-0.82
2023-12-18T03:40:43.695Z,-0.85
2023-12-18T03:43:12.675Z,-0.87
2023-12-18T03:45:41.094Z,-0.88
2023-12-18T03:48:10.414Z,-0.90
2023-12-18T03:50:39.070Z,-0.90
2023-12-18T03:53:09.931Z,-0.89
2023-12-18T03:55:39.549Z,-0.88
2023-12-18T03:58:08.031Z,-0.89
2023-12-18T04:00:36.581Z,-0.88
2023-12-18T04:03:06.138Z,-0.88
2023-12-18T04:05:34.866Z,-0.89
2023-12-18T04:08:03.450Z,-0.89
2023-12-18T04:10:31.842Z,-0.87
2023-12-18T04:13:00.280Z,-0.85
2023-12-18T04:15:29.460Z,-0.84
2023-12-18T04:17:59.277Z,-0.83
2023-12-18T04:20:27.841Z,-0.85
2023-12-18T04:22:56.186Z,-0.89
2023-12-18T04:25:25.922Z,-0.89
2023-12-18T04:27:54.705Z,-0.87
2023-12-18T04:30:23.350Z,-0.89
2023-12-18T04:32:51.964Z,-0.91
2023-12-18T04:35:20.527Z,-0.95
2023-12-18T04:37:49.034Z,-0.99
2023-12-18T04:40:18.286Z,-1.00
2023-12-18T04:42:47.063Z,-1.01
2023-12-18T04:45:15.865Z,-1.03
2023-12-18T04:47:44.809Z,-1.06
2023-12-18T04:50:14.660Z,-1.09
2023-12-18T04:52:43.635Z,-1.13
2023-12-18T04:55:12.429Z,-1.16
2023-12-18T04:57:40.979Z,-1.16
2023-12-18T05:00:09.852Z,-1.18
2023-12-18T05:02:39.367Z,-1.20
2023-12-18T05:05:08.285Z,-1.23
2023-12-18T05:07:36.637Z,-1.26
2023-12-18T05:10:05.372Z,-1.27
2023-12-18T05:12:33.869Z,-1.28
2023-12-18T05:15:03.952Z,-1.30
2023-12-18T05:17:33.499Z,-1.34
2023-12-18T05:20:01.917Z,-1.37
2023-12-18T05:22:30.321Z,-1.41
2023-12-18T05:24:58.729Z,-1.44
2023-12-18T05:27:27.259Z,-1.47
2023-12-18T05:29:55.815Z,-1.49
2023-12-18T05:32:24.313Z,-1.52
2023-12-18T05:34:53.001Z,-1.55
2023-12-18T05:37:22.780Z,-1.58
2023-12-18T05:39:51.141Z,-1.59
2023-12-18T05:42:20.824Z,-1.59
2023-12-18T05:44:49.247Z,-1.60
2023-12-18T05:47:17.762Z,-1.62
2023-12-18T05:49:46.362Z,-1.64
2023-12-18T05:52:14.872Z,-1.66
2023-12-18T05:54:43.294Z,-1.66
2023-12-18T05:57:13.596Z,-1.65
2023-12-18T05:59:42.174Z,-1.64
2023-12-18T06:02:11.007Z,-1.63
2023-12-18T06:04:43.217Z,-1.63
2023-12-18T06:07:12.270Z,-1.62
2023-12-18T06:09:41.088Z,-1.64
2023-12-18T06:12:09.673Z,-1.67
2023-12-18T06:14:40.591Z,-1.67
2023-12-18T06:17:11.531Z,-1.64
2023-12-18T06:19:40.130Z,-1.60
2023-12-18T06:22:11.535Z,-1.57
2023-12-18T06:24:40.757Z,-1.54
2023-12-18T06:27:09.444Z,-1.56
2023-12-18T06:29:37.971Z,-1.56
2023-12-18T06:32:06.949Z,-1.58
2023-12-18T06:34:35.768Z,-1.58
2023-12-18T06:37:04.618Z,-1.60
2023-12-18T06:39:33.206Z,-1.60
2023-12-18T06:42:01.699Z,-1.59
2023-12-18T06:44:30.170Z,-1.58
2023-12-18T06:47:00.650Z,-1.57
2023-12-18T06:49:29.846Z,-1.57
2023-12-18T06:51:58.558Z,-1.56
2023-12-18T06:54:28.686Z,-1.55
2023-12-18T06:56:57.266Z,-1.53
2023-12-18T06:59:25.737Z,-1.50
2023-12-18T07:01:54.261Z,-1.50
2023-12-18T07:04:22.781Z,-1.48
2023-12-18T07:06:51.204Z,-1.45
2023-12-18T07:09:20.956Z,-1.43
2023-12-18T07:11:49.382Z,-1.39
2023-12-18T07:14:19.461Z,-1.35
2023-12-18T07:16:47.936Z,-1.33
2023-12-18T07:19:17.430Z,-1.30
2023-12-18T07:21:46.194Z,-1.28
2023-12-18T07:24:14.753Z,-1.25
2023-12-18T07:26:43.289Z,-1.20
2023-12-18T07:29:11.701Z,-1.14
2023-12-18T07:31:40.374Z,-1.04
2023-12-18T07:34:09.104Z,-0.92
2023-12-18T07:36:40.666Z,-0.86
2023-12-18T07:39:10.006Z,-0.80
2023-12-18T07:41:38.379Z,-0.71
2023-12-18T07:44:06.644Z,-0.61
2023-12-18T07:46:34.919Z,-0.49
2023-12-18T07:49:04.381Z,-0.39
2023-12-18T07:51:33.062Z,-0.24
2023-12-18T07:54:01.645Z,-0.08
2023-12-18T07:56:30.119Z,0.10
2023-12-18T07:58:58.601Z,0.28
2023-12-18T08:01:27.209Z,0.47
2023-12-18T08:03:55.784Z,0.70
2023-12-18T08:06:24.275Z,0.93
2023-12-18T08:08:52.793Z,1.18
2023-12-18T08:11:21.372Z,1.45
2023-12-18T08:13:49.818Z,1.69
2023-12-18T08:16:18.605Z,1.88
2023-12-18T08:18:48.780Z,2.06
2023-12-18T08:21:17.479Z,2.22
2023-12-18T08:23:45.888Z,2.42
2023-12-18T08:26:14.290Z,2.58
2023-12-18T08:28:46.333Z,2.76
2023-12-18T08:31:14.816Z,2.94
2023-12-18T08:33:43.501Z,3.05
2023-12-18T08:36:12.319Z,3.19
2023-12-18T08:38:40.968Z,3.33
2023-12-18T08:41:09.417Z,3.48
2023-12-18T08:43:37.868Z,3.63
2023-12-18T08:46:06.428Z,3.80
2023-12-18T08:48:35.019Z,3.98
2023-12-18T08:51:06.184Z,4.13
2023-12-18T08:53:35.486Z,4.30
2023-12-18T08:56:04.676Z,4.48
2023-12-18T08:58:33.803Z,4.71
2023-12-18T09:01:02.457Z,4.89
2023-12-18T09:03:36.398Z,5.08
2023-12-18T09:06:05.674Z,5.26
2023-12-18T09:08:40.813Z,5.42
2023-12-18T09:11:10.215Z,5.56
2023-12-18T09:13:39.366Z,5.71
2023-12-18T09:16:08.130Z,5.86
2023-12-18T09:18:36.698Z,6.02
2023-12-18T09:21:05.422Z,6.18
2023-12-18T09:23:33.821Z,6.33
2023-12-18T09:26:02.357Z,6.50
2023-12-18T09:28:34.369Z,6.64
2023-12-18T09:31:02.845Z,6.76
2023-12-18T09:33:31.495Z,6.87
2023-12-18T09:36:01.769Z,6.99
2023-12-18T09:38:30.315Z,7.10
2023-12-18T09:40:58.825Z,7.19
2023-12-18T09:43:28.522Z,7.30
2023-12-18T09:45:58.275Z,7.42
2023-12-18T09:48:27.058Z,7.53
2023-12-18T09:50:56.902Z,7.66
2023-12-18T09:53:26.176Z,7.81
2023-12-18T09:55:56.232Z,7.95
2023-12-18T09:58:25.543Z,8.11
2023-12-18T10:00:55.021Z,8.29
2023-12-18T10:03:23.653Z,8.46
2023-12-18T10:05:55.013Z,8.64
2023-12-18T10:08:23.509Z,8.83
2023-12-18T10:10:52.058Z,9.05
2023-12-18T10:13:20.321Z,9.21
2023-12-18T10:15:48.789Z,9.35
2023-12-18T10:18:20.788Z,9.49
2023-12-18T10:20:50.846Z,9.62
2023-12-18T10:23:19.311Z,9.76
2023-12-18T10:25:49.351Z,9.89
2023-12-18T10:28:18.346Z,10.02
2023-12-18T10:30:47.197Z,10.12
2023-12-18T10:33:15.749Z,10.20
2023-12-18T10:35:45.026Z,10.28
2023-12-18T10:38:20.553Z,10.38
2023-12-18T10:40:56.003Z,10.47
2023-12-18T10:43:25.346Z,10.67
2023-12-18T10:45:54.753Z,10.88
2023-12-18T10:48:26.512Z,11.00
2023-12-18T10:50:59.293Z,11.06
2023-12-18T10:53:28.890Z,11.12
2023-12-18T10:56:00.366Z,11.17
2023-12-18T10:58:30.307Z,11.22
2023-12-18T11:01:00.688Z,11.25
2023-12-18T11:03:38.228Z,11.26
2023-12-18T11:06:11.405Z,11.30
2023-12-18T11:08:42.938Z,11.34
2023-12-18T11:11:14.348Z,11.37
2023-12-18T11:14:03.426Z,11.41
2023-12-18T11:16:42.443Z,11.43
2023-12-18T11:19:39.326Z,11.46
2023-12-18T11:22:07.847Z,11.49
2023-12-18T11:24:37.724Z,11.48
2023-12-18T11:27:07.647Z,11.49
2023-12-18T11:29:38.847Z,11.50
2023-12-18T11:32:07.632Z,11.53
2023-12-18T11:34:36.135Z,11.54
2023-12-18T11:37:08.104Z,11.54
2023-12-18T11:39:41.667Z,11.53
2023-12-18T11:42:12.952Z,11.54
2023-12-18T11:44:41.470Z,11.60
2023-12-18T11:47:09.798Z,11.64
2023-12-18T11:49:38.725Z,11.72
2023-12-18T11:52:18.769Z,11.73
2023-12-18T11:54:47.381Z,11.73
2023-12-18T11:57:20.422Z,11.69
2023-12-18T11:59:49.264Z,11.65
2023-12-18T12:02:18.107Z,11.60
2023-12-18T12:04:47.465Z,11.54
2023-12-18T12:07:16.146Z,11.51
2023-12-18T12:09:45.343Z,11.49
2023-12-18T12:12:15.486Z,11.49
2023-12-18T12:14:44.083Z,11.49
2023-12-18T12:17:12.387Z,11.48
2023-12-18T12:19:40.960Z,11.51
2023-12-18T12:22:10.499Z,11.59
2023-12-18T12:24:43.752Z,11.68
2023-12-18T12:27:13.461Z,11.77
2023-12-18T12:29:44.242Z,11.83
2023-12-18T12:32:15.090Z,11.86
2023-12-18T12:34:44.300Z,11.85
2023-12-18T12:37:13.594Z,11.90
2023-12-18T12:40:01.856Z,11.92
2023-12-18T12:42:36.030Z,11.89
2023-12-18T12:45:05.677Z,11.90
2023-12-18T12:47:34.995Z,11.90
2023-12-18T12:50:08.152Z,11.88
2023-12-18T12:52:38.904Z,11.81
2023-12-18T12:55:07.505Z,11.67
2023-12-18T12:57:36.038Z,11.53
2023-12-18T13:00:09.488Z,11.46
2023-12-18T13:02:38.024Z,11.41
2023-12-18T13:05:10.488Z,11.33
2023-12-18T13:07:39.234Z,11.25
2023-12-18T13:10:08.558Z,11.25
2023-12-18T13:12:36.918Z,11.29
2023-12-18T13:15:05.749Z,11.31
2023-12-18T13:17:34.748Z,11.34
2023-12-18T13:20:12.435Z,11.38
2023-12-18T13:22:48.643Z,11.43
2023-12-18T13:25:18.483Z,11.45
2023-12-18T13:27:46.918Z,11.43
2023-12-18T13:30:15.519Z,11.37
2023-12-18T13:32:44.149Z,11.29
2023-12-18T13:35:12.703Z,11.24
2023-12-18T13:37:41.501Z,11.22
2023-12-18T13:40:10.296Z,11.18
2023-12-18T13:42:38.671Z,11.12
2023-12-18T13:45:08.784Z,11.08
2023-12-18T13:47:37.131Z,11.00
2023-12-18T13:50:06.191Z,10.93
2023-12-18T13:52:34.747Z,10.86
2023-12-18T13:55:03.256Z,10.72
2023-12-18T13:57:39.171Z,10.59
2023-12-18T14:00:14.791Z,10.42
2023-12-18T14:02:43.132Z,10.25
2023-12-18T14:05:11.446Z,10.14
2023-12-18T14:07:40.067Z,10.03
2023-12-18T14:10:10.409Z,9.93
2023-12-18T14:12:39.247Z,9.81
2023-12-18T14:15:07.926Z,9.68
2023-12-18T14:17:36.465Z,9.58
2023-12-18T14:20:06.612Z,9.46
2023-12-18T14:22:35.239Z,9.34
2023-12-18T14:25:07.355Z,9.22
2023-12-18T14:27:36.072Z,9.11
2023-12-18T14:30:05.983Z,8.98
2023-12-18T14:32:34.333Z,8.88
2023-12-18T14:35:03.565Z,8.86
2023-12-18T14:37:32.076Z,8.83
2023-12-18T14:40:04.320Z,8.81
2023-12-18T14:42:32.876Z,8.75
2023-12-18T14:45:01.257Z,8.68
2023-12-18T14:47:29.665Z,8.61
2023-12-18T14:49:58.158Z,8.51
2023-12-18T14:52:26.504Z,8.43
2023-12-18T14:54:55.839Z,8.36
2023-12-18T14:57:24.556Z,8.30
2023-12-18T14:59:53.622Z,8.23
2023-12-18T15:02:22.550Z,8.17
2023-12-18T15:04:51.399Z,8.11
2023-12-18T15:07:20.049Z,8.06
2023-12-18T15:09:48.384Z,8.03
2023-12-18T15:12:16.939Z,7.99
2023-12-18T15:14:45.316Z,7.94
2023-12-18T15:17:14.342Z,7.89
2023-12-18T15:19:43.162Z,7.88
2023-12-18T15:22:13.294Z,7.87
2023-12-18T15:24:41.792Z,7.86
2023-12-18T15:27:12.436Z,7.85
2023-12-18T15:29:41.140Z,7.82
2023-12-18T15:32:11.282Z,7.79
2023-12-18T15:34:39.850Z,7.78
2023-12-18T15:37:09.065Z,7.79
2023-12-18T15:39:37.503Z,7.84
2023-12-18T15:42:06.501Z,7.93
2023-12-18T15:44:35.948Z,7.99
2023-12-18T15:47:05.221Z,8.02
2023-12-18T15:49:33.769Z,8.06
2023-12-18T15:52:03.072Z,8.15
2023-12-18T15:54:31.516Z,8.22
2023-12-18T15:57:00.300Z,8.24
2023-12-18T15:59:28.773Z,8.26
2023-12-18T16:01:57.139Z,8.28
2023-12-18T16:04:25.710Z,8.30
2023-12-18T16:06:54.821Z,8.34
2023-12-18T16:09:23.166Z,8.38
2023-12-18T16:11:53.933Z,8.39
2023-12-18T16:14:22.468Z,8.38
2023-12-18T16:16:52.416Z,8.36
2023-12-18T16:19:21.273Z,8.34
2023-12-18T16:21:50.788Z,8.32
2023-12-18T16:24:20.228Z,8.27
2023-12-18T16:26:48.696Z,8.22
2023-12-18T16:29:17.814Z,8.19
2023-12-18T16:31:49.698Z,8.16
2023-12-18T16:34:18.340Z,8.15
2023-12-18T16:36:46.718Z,8.12
2023-12-18T16:39:15.779Z,8.10
2023-12-18T16:41:44.332Z,8.07
2023-12-18T16:44:15.516Z,8.02
2023-12-18T16:46:45.669Z,7.98
2023-12-18T16:49:14.856Z,7.92
2023-12-18T16:51:43.595Z,7.88
2023-12-18T16:54:12.734Z,7.83
2023-12-18T16:56:41.276Z,7.78
2023-12-18T16:59:16.588Z,7.73
2023-12-18T17:01:51.787Z,7.69
2023-12-18T17:04:20.225Z,7.64
2023-12-18T17:06:48.893Z,7.60
2023-12-18T17:09:22.456Z,7.54
2023-12-18T17:11:53.237Z,7.51
2023-12-18T17:14:21.657Z,7.45
2023-12-18T17:16:54.652Z,7.41
2023-12-18T17:19:23.282Z,7.37
2023-12-18T17:21:51.968Z,7.32
2023-12-18T17:24:21.128Z,7.27
2023-12-18T17:26:49.597Z,7.23
2023-12-18T17:29:18.491Z,7.19
2023-12-18T17:31:48.113Z,7.13
2023-12-18T17:34:19.364Z,7.07
2023-12-18T17:36:48.430Z,7.01
2023-12-18T17:39:19.139Z,6.96
2023-12-18T17:41:52.759Z,6.91
2023-12-18T17:44:21.455Z,6.87
2023-12-18T17:46:49.715Z,6.83
2023-12-18T17:49:18.904Z,6.81
2023-12-18T17:51:47.719Z,6.78
2023-12-18T17:54:16.391Z,6.75
2023-12-18T17:56:44.768Z,6.72
2023-12-18T17:59:16.083Z,6.70
2023-12-18T18:01:44.528Z,6.67
2023-12-18T18:04:13.158Z,6.62
2023-12-18T18:06:42.424Z,6.58
2023-12-18T18:09:14.240Z,6.55
2023-12-18T18:11:42.636Z,6.52
2023-12-18T18:14:11.181Z,6.50
2023-12-18T18:16:42.990Z,6.47
2023-12-18T18:19:20.634Z,6.44
2023-12-18T18:21:51.962Z,6.43
2023-12-18T18:24:22.124Z,6.42
2023-12-18T18:27:08.212Z,6.41
2023-12-18T18:29:39.537Z,6.41
2023-12-18T18:32:10.972Z,6.38
2023-12-18T18:34:40.942Z,6.32
2023-12-18T18:37:09.579Z,6.28
2023-12-18T18:39:41.740Z,6.25
2023-12-18T18:42:13.095Z,6.22
2023-12-18T18:44:45.672Z,6.19
2023-12-18T18:47:14.116Z,6.17
2023-12-18T18:49:45.316Z,6.15
2023-12-18T18:52:14.220Z,6.13
2023-12-18T18:54:43.408Z,6.09
2023-12-18T18:57:13.755Z,6.07
2023-12-18T18:59:43.119Z,6.04
2023-12-18T19:02:11.571Z,5.99
2023-12-18T19:04:41.554Z,5.95
2023-12-18T19:07:09.956Z,5.89
2023-12-18T19:09:39.191Z,5.83
2023-12-18T19:12:11.095Z,5.77
2023-12-18T19:14:39.489Z,5.70
2023-12-18T19:17:08.446Z,5.67
2023-12-18T19:19:36.969Z,5.63
2023-12-18T19:22:06.649Z,5.58
2023-12-18T19:24:35.008Z,5.53
2023-12-18T19:27:11.956Z,5.48
2023-12-18T19:29:41.911Z,5.43
2023-12-18T19:32:10.430Z,5.39
2023-12-18T19:34:41.561Z,5.35
2023-12-18T19:37:09.992Z,5.31
2023-12-18T19:39:38.529Z,5.28
2023-12-18T19:42:07.990Z,5.25
2023-12-18T19:44:36.716Z,5.23
2023-12-18T19:47:05.315Z,5.18
2023-12-18T19:49:34.299Z,5.13
2023-12-18T19:52:02.847Z,5.08
2023-12-18T19:54:34.335Z,5.03
2023-12-18T19:57:03.501Z,4.98
2023-12-18T19:59:32.209Z,4.94
2023-12-18T20:02:01.156Z,4.90
2023-12-18T20:04:29.944Z,4.86
2023-12-18T20:07:05.947Z,4.82
2023-12-18T20:09:34.562Z,4.80
2023-12-18T20:12:06.893Z,4.79
2023-12-18T20:14:35.163Z,4.77
2023-12-18T20:17:03.917Z,4.75
2023-12-18T20:19:32.435Z,4.73
2023-12-18T20:22:01.121Z,4.71
2023-12-18T20:24:29.594Z,4.67
2023-12-18T20:26:58.385Z,4.63
2023-12-18T20:29:26.607Z,4.58
2023-12-18T20:31:54.962Z,4.54
2023-12-18T20:34:23.460Z,4.50
2023-12-18T20:36:54.377Z,4.44
2023-12-18T20:39:22.941Z,4.39
2023-12-18T20:41:51.629Z,4.34
2023-12-18T20:44:23.162Z,4.29
2023-12-18T20:46:55.770Z,4.22
2023-12-18T20:49:29.179Z,4.15
2023-12-18T20:51:58.159Z,4.09
2023-12-18T20:54:26.658Z,4.03
2023-12-18T20:56:55.085Z,4.00
2023-12-18T20:59:23.374Z,3.97
2023-12-18T21:01:51.790Z,3.93
2023-12-18T21:04:20.335Z,3.91
2023-12-18T21:06:49.633Z,3.90
2023-12-18T21:09:18.179Z,3.90
2023-12-18T21:11:46.582Z,3.89
2023-12-18T21:14:22.944Z,3.90
2023-12-18T21:16:58.784Z,3.92
2023-12-18T21:19:27.112Z,3.93
2023-12-18T21:21:56.907Z,3.97
2023-12-18T21:24:25.744Z,4.00
2023-12-18T21:26:54.137Z,4.03
2023-12-18T21:29:22.630Z,4.06
2023-12-18T21:31:51.151Z,4.08
2023-12-18T21:34:20.719Z,4.08
2023-12-18T21:36:51.423Z,4.10
2023-12-18T21:39:21.616Z,4.11
2023-12-18T21:41:50.029Z,4.13
2023-12-18T21:44:18.371Z,4.14
2023-12-18T21:46:46.780Z,4.15
2023-12-18T21:49:15.274Z,4.15
2023-12-18T21:51:44.466Z,4.16
2023-12-18T21:54:13.102Z,4.17
2023-12-18T21:56:44.961Z,4.18
2023-12-18T21:59:13.286Z,4.17
2023-12-18T22:01:41.675Z,4.17
2023-12-18T22:04:10.366Z,4.17
2023-12-18T22:06:38.794Z,4.16
2023-12-18T22:09:07.669Z,4.14
2023-12-18T22:11:35.941Z,4.12
2023-12-18T22:14:06.136Z,4.10
2023-12-18T22:16:36.011Z,4.06
2023-12-18T22:19:05.277Z,4.03
2023-12-18T22:21:33.713Z,4.00
2023-12-18T22:24:02.399Z,3.98
2023-12-18T22:26:30.729Z,3.98
2023-12-18T22:28:59.090Z,3.97
2023-12-18T22:31:33.149Z,3.97
2023-12-18T22:34:02.749Z,3.95
2023-12-18T22:36:31.181Z,3.95
2023-12-18T22:39:05.665Z,3.95
2023-12-18T22:41:41.684Z,3.95
2023-12-18T22:44:10.323Z,3.96
2023-12-18T22:46:39.831Z,3.96
2023-12-18T22:49:09.122Z,3.95
2023-12-18T22:51:37.679Z,3.94
2023-12-18T22:54:06.082Z,3.91
2023-12-18T22:56:34.475Z,3.89
2023-12-18T22:59:03.279Z,3.88
2023-12-18T23:01:32.111Z,3.86
2023-12-18T23:04:02.147Z,3.86
2023-12-18T23:06:33.593Z,3.85
2023-12-18T23:09:02.440Z,3.84
2023-12-18T23:11:31.449Z,3.82
2023-12-18T23:13:59.875Z,3.79
2023-12-18T23:16:28.365Z,3.77
2023-12-18T23:18:57.003Z,3.74
2023-12-18T23:21:25.503Z,3.71
2023-12-18T23:24:00.079Z,3.68
2023-12-18T23:26:28.863Z,3.65
2023-12-18T23:28:57.314Z,3.62
2023-12-18T23:31:25.877Z,3.58
2023-12-18T23:33:56.373Z,3.53
2023-12-18T23:36:24.960Z,3.47
2023-12-18T23:38:53.373Z,3.40
2023-12-18T23:41:23.356Z,3.32
2023-12-18T23:43:52.129Z,3.22
2023-12-18T23:46:20.504Z,3.15
2023-12-18T23:48:48.927Z,3.05
2023-12-18T23:51:24.006Z,2.97
2023-12-18T23:53:52.393Z,2.91
2023-12-18T23:56:22.333Z,2.82
2023-12-18T23:58:50.754Z,2.74
